Kezdőlap
METAR-TAF:

METAR-TAF

Repülőterek :

Grise Fiord, Nunavut, Kanada

földrajzi szélesség: 76-25N, földrajzi hosszúság: 082-54W, magasság: 45 m

Jelenlegi meteorológiai megfigyelések

A jelentés 1 órával és 6 perccel ezelõtt készült, 18:00 UTC
Különbözõ irányokból fújó szél 2 kt
Hőmérséklet -4°C
Páratartalom 86%
Légköri nyomás 1016 hPa
Látótávolság: 24.1 km
Szórványos felhőzet 12000 lábon

METAR: CWGZ 241800Z VRB02KT 15SM SCT120 M04/M06 A3001 RMK AC4 SLP169

Idő: 15:06 (19:06 UTC)


TAF: hiányzik

Meteorológiai megfigyelések és előrejelzések több, mint 4000 repülőtéren (METAR és TAF jelentéseket).

A térképen piros és sárga pontok jelzik az elérhető meteorológiai állomásokat.

Mozgassa az egeret a pont fölött, hogy megjelenjen az állomás neve.

Azután kattintson az időjárási megfigyelések és előrejelzések megtekintéséhez.

A térkép megváltoztatása: kattintson a fekete keresztel jelölt zöld gombra ráközelítéshez, a vonallal jelölt zöld gombra távolításhoz, vagy a zöld nyilakra a szomszédos térképek eléréséhez.


METAR-TAF: